sensor_id;sensor_type;location;lat;lon;timestamp;temperature;humidity
43530;DHT22;55654;50.966;6.878;2023-04-03T03:11:17;6.50;99.90
43530;DHT22;55654;50.966;6.878;2023-04-03T03:13:45;-0.70;99.90
43530;DHT22;55654;50.966;6.878;2023-04-03T03:16:10;-0.90;99.90
43530;DHT22;55654;50.966;6.878;2023-04-03T03:26:03;-1.00;99.90
43530;DHT22;55654;50.966;6.878;2023-04-03T03:28:32;-1.00;99.90
43530;DHT22;55654;50.966;6.878;2023-04-03T03:30:58;-1.00;99.90
43530;DHT22;55654;50.966;6.878;2023-04-03T03:33:25;-1.00;99.90
43530;DHT22;55654;50.966;6.878;2023-04-03T03:35:52;-0.90;99.90
43530;DHT22;55654;50.966;6.878;2023-04-03T03:38:20;-1.00;99.90
43530;DHT22;55654;50.966;6.878;2023-04-03T03:40:48;-1.10;99.90
43530;DHT22;55654;50.966;6.878;2023-04-03T03:43:17;-1.20;99.90
43530;DHT22;55654;50.966;6.878;2023-04-03T03:45:43;-1.10;99.90
43530;DHT22;55654;50.966;6.878;2023-04-03T03:48:11;-1.10;99.90
43530;DHT22;55654;50.966;6.878;2023-04-03T03:50:37;-1.20;99.90
43530;DHT22;55654;50.966;6.878;2023-04-03T03:53:03;-1.00;99.90
43530;DHT22;55654;50.966;6.878;2023-04-03T03:55:33;-1.10;99.90
43530;DHT22;55654;50.966;6.878;2023-04-03T03:57:58;-1.20;99.90
43530;DHT22;55654;50.966;6.878;2023-04-03T04:00:26;-1.20;99.90
43530;DHT22;55654;50.966;6.878;2023-04-03T04:02:52;-1.10;99.90
43530;DHT22;55654;50.966;6.878;2023-04-03T04:05:17;-1.10;99.90
43530;DHT22;55654;50.966;6.878;2023-04-03T04:07:43;-1.00;99.90
43530;DHT22;55654;50.966;6.878;2023-04-03T04:10:09;-1.10;99.90
43530;DHT22;55654;50.966;6.878;2023-04-03T04:12:37;-1.00;99.90
43530;DHT22;55654;50.966;6.878;2023-04-03T04:15:03;-1.10;99.90
43530;DHT22;55654;50.966;6.878;2023-04-03T04:17:29;-1.00;99.90
43530;DHT22;55654;50.966;6.878;2023-04-03T04:19:54;-1.00;99.90
43530;DHT22;55654;50.966;6.878;2023-04-03T04:22:20;-1.00;99.90
43530;DHT22;55654;50.966;6.878;2023-04-03T04:24:46;-1.00;99.90
43530;DHT22;55654;50.966;6.878;2023-04-03T04:27:11;-1.00;99.90
43530;DHT22;55654;50.966;6.878;2023-04-03T04:29:37;-1.10;99.90
43530;DHT22;55654;50.966;6.878;2023-04-03T04:32:03;-0.90;99.90
43530;DHT22;55654;50.966;6.878;2023-04-03T04:34:29;-0.90;99.90
43530;DHT22;55654;50.966;6.878;2023-04-03T04:36:55;-0.90;99.90
43530;DHT22;55654;50.966;6.878;2023-04-03T04:39:20;-0.90;99.90
43530;DHT22;55654;50.966;6.878;2023-04-03T04:41:49;-0.90;99.90
43530;DHT22;55654;50.966;6.878;2023-04-03T04:44:14;-0.80;99.90
43530;DHT22;55654;50.966;6.878;2023-04-03T04:46:42;-0.80;99.90
43530;DHT22;55654;50.966;6.878;2023-04-03T04:49:08;-0.70;99.90
43530;DHT22;55654;50.966;6.878;2023-04-03T04:51:33;-0.70;99.90
43530;DHT22;55654;50.966;6.878;2023-04-03T04:53:59;-0.60;99.90
43530;DHT22;55654;50.966;6.878;2023-04-03T04:56:25;-0.60;99.90
43530;DHT22;55654;50.966;6.878;2023-04-03T04:58:53;-0.70;99.90
43530;DHT22;55654;50.966;6.878;2023-04-03T05:01:19;-0.80;99.90
43530;DHT22;55654;50.966;6.878;2023-04-03T05:03:44;-0.80;99.90
43530;DHT22;55654;50.966;6.878;2023-04-03T05:06:10;-0.90;99.90
43530;DHT22;55654;50.966;6.878;2023-04-03T05:08:35;-0.90;99.90
43530;DHT22;55654;50.966;6.878;2023-04-03T05:11:01;-0.90;99.90
43530;DHT22;55654;50.966;6.878;2023-04-03T05:13:27;-0.70;99.90
43530;DHT22;55654;50.966;6.878;2023-04-03T05:15:52;-0.60;99.90
43530;DHT22;55654;50.966;6.878;2023-04-03T05:18:18;-0.60;99.90
43530;DHT22;55654;50.966;6.878;2023-04-03T05:20:43;-0.70;99.90
43530;DHT22;55654;50.966;6.878;2023-04-03T05:23:12;-0.80;99.90
43530;DHT22;55654;50.966;6.878;2023-04-03T05:25:38;-0.70;99.90
43530;DHT22;55654;50.966;6.878;2023-04-03T05:28:06;-0.60;99.90
43530;DHT22;55654;50.966;6.878;2023-04-03T05:30:32;-0.50;99.90
43530;DHT22;55654;50.966;6.878;2023-04-03T05:33:00;-0.40;99.90
43530;DHT22;55654;50.966;6.878;2023-04-03T05:35:26;-0.30;99.90
43530;DHT22;55654;50.966;6.878;2023-04-03T05:37:51;-0.30;99.90
43530;DHT22;55654;50.966;6.878;2023-04-03T05:40:19;-0.30;99.90
43530;DHT22;55654;50.966;6.878;2023-04-03T05:42:45;-0.10;99.90
43530;DHT22;55654;50.966;6.878;2023-04-03T05:45:11;-0.10;99.90
43530;DHT22;55654;50.966;6.878;2023-04-03T05:47:37;0.00;99.90
43530;DHT22;55654;50.966;6.878;2023-04-03T05:50:03;0.00;99.90
43530;DHT22;55654;50.966;6.878;2023-04-03T05:52:37;0.20;99.90
43530;DHT22;55654;50.966;6.878;2023-04-03T05:55:03;0.20;99.90
43530;DHT22;55654;50.966;6.878;2023-04-03T05:57:29;0.30;99.90
43530;DHT22;55654;50.966;6.878;2023-04-03T05:59:56;0.40;99.90
43530;DHT22;55654;50.966;6.878;2023-04-03T06:02:24;0.50;99.90
43530;DHT22;55654;50.966;6.878;2023-04-03T06:04:53;0.60;99.90
43530;DHT22;55654;50.966;6.878;2023-04-03T06:07:21;0.80;99.90
43530;DHT22;55654;50.966;6.878;2023-04-03T06:09:48;0.80;99.90
43530;DHT22;55654;50.966;6.878;2023-04-03T06:12:14;1.10;99.90
43530;DHT22;55654;50.966;6.878;2023-04-03T06:14:40;1.10;99.90
43530;DHT22;55654;50.966;6.878;2023-04-03T06:17:06;1.40;99.90
43530;DHT22;55654;50.966;6.878;2023-04-03T06:19:33;1.60;99.90
43530;DHT22;55654;50.966;6.878;2023-04-03T06:21:59;1.80;99.90
43530;DHT22;55654;50.966;6.878;2023-04-03T06:24:25;2.00;99.90
43530;DHT22;55654;50.966;6.878;2023-04-03T06:26:51;2.10;99.90
43530;DHT22;55654;50.966;6.878;2023-04-03T06:29:18;1.90;99.90
43530;DHT22;55654;50.966;6.878;2023-04-03T06:31:45;1.90;99.90
43530;DHT22;55654;50.966;6.878;2023-04-03T06:34:10;2.00;99.90
43530;DHT22;55654;50.966;6.878;2023-04-03T06:36:37;2.00;99.90
43530;DHT22;55654;50.966;6.878;2023-04-03T06:39:03;1.90;99.90
43530;DHT22;55654;50.966;6.878;2023-04-03T06:41:28;2.00;99.90
43530;DHT22;55654;50.966;6.878;2023-04-03T06:43:54;2.10;99.90
43530;DHT22;55654;50.966;6.878;2023-04-03T06:46:22;2.30;99.90
43530;DHT22;55654;50.966;6.878;2023-04-03T06:48:48;2.40;99.90
43530;DHT22;55654;50.966;6.878;2023-04-03T06:51:30;2.50;99.90
43530;DHT22;55654;50.966;6.878;2023-04-03T06:53:57;2.40;99.90
43530;DHT22;55654;50.966;6.878;2023-04-03T06:56:23;2.40;99.90
43530;DHT22;55654;50.966;6.878;2023-04-03T06:58:50;2.50;99.90
43530;DHT22;55654;50.966;6.878;2023-04-03T07:01:17;2.80;99.90
43530;DHT22;55654;50.966;6.878;2023-04-03T07:03:44;2.90;99.90
43530;DHT22;55654;50.966;6.878;2023-04-03T07:06:14;3.00;99.90
43530;DHT22;55654;50.966;6.878;2023-04-03T07:08:40;3.20;99.90
43530;DHT22;55654;50.966;6.878;2023-04-03T07:11:06;3.20;99.90
43530;DHT22;55654;50.966;6.878;2023-04-03T07:13:32;3.30;99.90
43530;DHT22;55654;50.966;6.878;2023-04-03T07:15:58;3.20;99.90
43530;DHT22;55654;50.966;6.878;2023-04-03T07:18:24;3.50;99.90
43530;DHT22;55654;50.966;6.878;2023-04-03T07:20:51;3.60;99.90
43530;DHT22;55654;50.966;6.878;2023-04-03T07:23:18;3.70;99.90
43530;DHT22;55654;50.966;6.878;2023-04-03T07:25:49;3.80;99.90
43530;DHT22;55654;50.966;6.878;2023-04-03T07:28:15;3.80;99.90
43530;DHT22;55654;50.966;6.878;2023-04-03T07:30:45;3.80;99.90
43530;DHT22;55654;50.966;6.878;2023-04-03T07:33:13;3.80;99.90
43530;DHT22;55654;50.966;6.878;2023-04-03T08:09:52;3.80;99.90
43530;DHT22;55654;50.966;6.878;2023-04-03T08:12:18;4.40;99.90
43530;DHT22;55654;50.966;6.878;2023-04-03T08:14:43;4.50;99.90
43530;DHT22;55654;50.966;6.878;2023-04-03T08:17:09;4.60;99.90
43530;DHT22;55654;50.966;6.878;2023-04-03T08:19:39;4.60;99.90
43530;DHT22;55654;50.966;6.878;2023-04-03T08:22:05;4.70;99.90
43530;DHT22;55654;50.966;6.878;2023-04-03T08:24:34;4.80;99.90
43530;DHT22;55654;50.966;6.878;2023-04-03T08:27:00;4.80;99.90
43530;DHT22;55654;50.966;6.878;2023-04-03T08:29:26;4.80;99.90
43530;DHT22;55654;50.966;6.878;2023-04-03T08:31:52;4.80;99.90
43530;DHT22;55654;50.966;6.878;2023-04-03T08:34:19;4.90;99.90
43530;DHT22;55654;50.966;6.878;2023-04-03T08:36:44;4.90;99.90
43530;DHT22;55654;50.966;6.878;2023-04-03T08:39:10;5.00;99.90
43530;DHT22;55654;50.966;6.878;2023-04-03T08:41:41;4.90;99.90
43530;DHT22;55654;50.966;6.878;2023-04-03T08:49:48;5.10;99.90
43530;DHT22;55654;50.966;6.878;2023-04-03T08:52:19;5.10;99.90
43530;DHT22;55654;50.966;6.878;2023-04-03T08:54:49;5.20;99.90
43530;DHT22;55654;50.966;6.878;2023-04-03T08:57:17;5.30;99.90
43530;DHT22;55654;50.966;6.878;2023-04-03T08:59:45;5.30;99.90
43530;DHT22;55654;50.966;6.878;2023-04-03T09:02:34;5.40;99.90
43530;DHT22;55654;50.966;6.878;2023-04-03T09:05:02;5.40;99.90
43530;DHT22;55654;50.966;6.878;2023-04-03T09:07:49;5.40;99.90
43530;DHT22;55654;50.966;6.878;2023-04-03T09:10:24;5.40;99.90
43530;DHT22;55654;50.966;6.878;2023-04-03T09:13:01;5.60;99.90
